createdAt,value
2023-04-28T00:01:40.978Z,4.84
2023-04-28T00:04:44.118Z,4.74
2023-04-28T00:07:47.127Z,4.77
2023-04-28T00:10:49.674Z,4.85
2023-04-28T00:13:52.226Z,4.80
2023-04-28T00:16:57.018Z,4.73
2023-04-28T00:19:59.696Z,4.70
2023-04-28T00:23:02.203Z,4.70
2023-04-28T00:26:04.744Z,4.76
2023-04-28T00:29:07.195Z,4.65
2023-04-28T00:32:09.696Z,4.64
2023-04-28T00:35:12.376Z,4.62
2023-04-28T00:38:14.857Z,4.55
2023-04-28T00:41:17.325Z,4.50
2023-04-28T00:44:19.766Z,4.56
2023-04-28T00:47:22.611Z,4.49
2023-04-28T00:50:27.368Z,4.37
2023-04-28T00:53:30.832Z,4.39
2023-04-28T00:56:34.256Z,4.35
2023-04-28T00:59:37.044Z,4.19
2023-04-28T01:02:39.812Z,4.23
2023-04-28T01:05:42.777Z,4.08
2023-04-28T01:08:49.072Z,4.09
2023-04-28T01:11:52.316Z,4.01
2023-04-28T01:15:18.257Z,3.89
2023-04-28T01:18:22.906Z,3.98
2023-04-28T01:21:32.600Z,3.96
2023-04-28T01:24:40.156Z,3.93
2023-04-28T01:27:43.676Z,3.96
2023-04-28T01:30:46.291Z,3.92
2023-04-28T01:33:48.915Z,4.02
2023-04-28T01:36:52.706Z,4.01
2023-04-28T01:39:55.372Z,3.88
2023-04-28T01:42:57.908Z,3.84
2023-04-28T01:46:00.824Z,3.86
2023-04-28T01:49:03.462Z,3.82
2023-04-28T01:52:11.848Z,3.71
2023-04-28T01:55:14.515Z,3.73
2023-04-28T01:58:17.287Z,3.74
2023-04-28T02:01:19.819Z,3.76
2023-04-28T02:04:22.538Z,3.60
2023-04-28T02:07:25.399Z,3.74
2023-04-28T02:10:28.555Z,3.61
2023-04-28T02:13:31.140Z,3.59
2023-04-28T02:16:33.993Z,3.60
2023-04-28T02:19:38.620Z,3.63
2023-04-28T02:22:41.652Z,3.55
2023-04-28T02:25:44.169Z,3.54
2023-04-28T02:28:49.234Z,3.53
2023-04-28T02:31:52.097Z,3.60
2023-04-28T02:34:55.469Z,3.55
2023-04-28T02:37:58.941Z,3.44
2023-04-28T02:41:06.570Z,3.44
2023-04-28T02:44:10.138Z,3.50
2023-04-28T02:47:12.719Z,3.42
2023-04-28T02:50:16.345Z,3.44
2023-04-28T02:53:19.719Z,3.43
2023-04-28T02:56:22.356Z,3.45
2023-04-28T02:59:25.816Z,3.38
2023-04-28T03:02:28.391Z,3.45
2023-04-28T03:05:31.077Z,3.46
2023-04-28T03:08:33.702Z,3.41
2023-04-28T03:11:36.423Z,3.52
2023-04-28T03:14:39.534Z,3.45
2023-04-28T03:17:43.172Z,3.33
2023-04-28T03:20:45.920Z,3.27
2023-04-28T03:23:48.774Z,3.06
2023-04-28T03:26:51.297Z,3.13
2023-04-28T03:29:53.879Z,3.12
2023-04-28T03:32:56.976Z,3.23
2023-04-28T03:35:59.453Z,3.22
2023-04-28T03:39:02.061Z,3.20
2023-04-28T03:42:06.690Z,3.25
2023-04-28T03:45:12.090Z,3.19
2023-04-28T03:48:14.638Z,3.04
2023-04-28T03:51:17.231Z,3.30
2023-04-28T03:54:20.017Z,3.29
2023-04-28T03:57:22.505Z,3.30
2023-04-28T04:00:26.532Z,3.43
2023-04-28T04:03:30.451Z,3.32
2023-04-28T04:06:33.148Z,3.21
2023-04-28T04:09:35.677Z,3.01
2023-04-28T04:12:38.272Z,3.18
2023-04-28T04:15:40.850Z,3.26
2023-04-28T04:18:44.211Z,3.44
2023-04-28T04:22:05.151Z,3.67
2023-04-28T04:25:08.029Z,3.70
2023-04-28T04:28:11.131Z,3.75
2023-04-28T04:31:13.711Z,3.82
2023-04-28T04:34:16.469Z,4.04
2023-04-28T04:37:19.485Z,4.20
2023-04-28T04:40:34.397Z,4.38
2023-04-28T04:43:36.933Z,4.35
2023-04-28T04:46:39.508Z,4.52
2023-04-28T04:49:42.180Z,4.76
2023-04-28T04:52:44.886Z,4.79
2023-04-28T04:55:47.571Z,4.98
2023-04-28T04:58:51.897Z,5.20
2023-04-28T05:02:14.765Z,5.22
2023-04-28T05:05:21.692Z,5.44
2023-04-28T05:08:43.827Z,5.67
2023-04-28T05:11:46.818Z,5.87
2023-04-28T05:14:49.324Z,6.02
2023-04-28T05:17:55.126Z,6.14
2023-04-28T05:20:58.046Z,6.25
2023-04-28T05:24:01.030Z,6.44
2023-04-28T05:27:04.045Z,6.63
2023-04-28T05:30:10.699Z,6.78
2023-04-28T05:33:14.128Z,6.98
2023-04-28T05:36:17.367Z,7.05
2023-04-28T05:39:21.778Z,7.31
2023-04-28T05:42:24.443Z,7.47
2023-04-28T05:45:27.481Z,7.69
2023-04-28T05:48:31.406Z,7.89
2023-04-28T05:51:34.179Z,8.21
2023-04-28T05:54:37.716Z,8.38
2023-04-28T05:57:51.952Z,8.72
2023-04-28T06:00:56.484Z,9.07
2023-04-28T06:03:59.430Z,9.29
2023-04-28T06:07:02.245Z,9.56
2023-04-28T06:10:06.106Z,9.74
2023-04-28T06:13:09.512Z,10.20
2023-04-28T06:16:12.125Z,10.26
2023-04-28T06:19:16.073Z,10.21
2023-04-28T06:22:18.577Z,10.17
2023-04-28T06:25:22.345Z,10.24
2023-04-28T06:28:26.118Z,10.08
2023-04-28T06:31:29.401Z,9.67
2023-04-28T06:34:32.974Z,9.93
2023-04-28T06:37:36.042Z,10.12
2023-04-28T06:40:40.065Z,10.54
2023-04-28T06:43:43.590Z,10.84
2023-04-28T06:46:50.513Z,10.85
2023-04-28T06:49:53.998Z,11.18
2023-04-28T06:52:56.604Z,11.51
2023-04-28T06:55:59.199Z,11.79
2023-04-28T06:59:03.956Z,11.81
2023-04-28T07:02:06.896Z,11.93
2023-04-28T07:05:10.027Z,12.09
2023-04-28T07:08:12.591Z,12.11
2023-04-28T07:11:16.599Z,12.07
2023-04-28T07:14:19.165Z,11.71
2023-04-28T07:17:22.217Z,11.85
2023-04-28T07:20:24.884Z,12.39
2023-04-28T07:23:28.038Z,12.34
2023-04-28T07:26:30.826Z,12.60
2023-04-28T07:29:35.096Z,12.35
2023-04-28T07:32:37.923Z,12.43
2023-04-28T07:35:40.534Z,12.76
2023-04-28T07:38:43.314Z,12.98
2023-04-28T07:41:46.216Z,13.12
2023-04-28T07:44:48.726Z,12.93
2023-04-28T07:47:51.473Z,13.33
2023-04-28T07:50:54.172Z,13.60
2023-04-28T07:53:57.234Z,13.67
2023-04-28T07:57:00.121Z,13.97
2023-04-28T08:00:03.568Z,14.51
2023-04-28T08:03:14.729Z,14.96
2023-04-28T08:06:17.697Z,14.73
2023-04-28T08:09:20.506Z,15.08
2023-04-28T08:12:23.095Z,15.18
2023-04-28T08:15:27.573Z,15.37
2023-04-28T08:18:30.075Z,15.36
2023-04-28T08:21:32.888Z,15.60
2023-04-28T08:24:35.421Z,15.94
2023-04-28T08:27:39.977Z,15.33
2023-04-28T08:30:42.672Z,15.41
2023-04-28T08:33:48.531Z,15.49
2023-04-28T08:36:52.029Z,15.81
2023-04-28T08:40:09.852Z,15.85
2023-04-28T08:43:14.007Z,15.40
2023-04-28T08:46:18.502Z,15.15
2023-04-28T08:49:28.555Z,15.06
2023-04-28T08:52:31.444Z,15.38
2023-04-28T08:55:35.113Z,15.28
2023-04-28T08:58:39.520Z,15.85
2023-04-28T09:01:42.393Z,16.12
2023-04-28T09:04:45.084Z,16.33
2023-04-28T09:07:49.131Z,16.66
2023-04-28T09:11:13.586Z,17.01
2023-04-28T09:14:16.232Z,16.86
2023-04-28T09:17:19.441Z,16.69
2023-04-28T09:20:22.984Z,17.08
2023-04-28T09:23:26.627Z,16.34
2023-04-28T09:26:48.852Z,17.04
2023-04-28T09:29:54.830Z,16.54
2023-04-28T09:33:08.154Z,16.81
2023-04-28T09:36:12.184Z,17.28
2023-04-28T09:39:15.122Z,17.23
2023-04-28T09:42:35.752Z,17.82
2023-04-28T09:45:42.625Z,18.32
2023-04-28T09:48:47.247Z,17.74
2023-04-28T09:51:51.255Z,18.37
2023-04-28T09:54:56.841Z,18.08
2023-04-28T09:58:07.324Z,18.66
2023-04-28T10:01:13.740Z,18.91
2023-04-28T10:04:17.311Z,19.18
2023-04-28T10:07:21.394Z,19.56
2023-04-28T10:10:25.396Z,19.99
2023-04-28T10:13:27.892Z,19.81
2023-04-28T10:16:32.212Z,19.07
2023-04-28T10:19:35.892Z,18.42
2023-04-28T10:23:07.674Z,18.89
2023-04-28T10:26:12.957Z,19.27
2023-04-28T10:29:16.554Z,18.60
2023-04-28T10:32:22.150Z,20.14
2023-04-28T10:35:28.052Z,22.14
2023-04-28T10:38:30.627Z,23.22
2023-04-28T10:41:33.901Z,23.11
2023-04-28T10:44:38.394Z,24.41
2023-04-28T10:48:04.489Z,22.52
2023-04-28T10:51:07.896Z,22.60
2023-04-28T10:54:14.486Z,24.25
2023-04-28T10:57:21.526Z,26.89
2023-04-28T11:00:28.951Z,22.78
2023-04-28T11:04:02.168Z,21.20
2023-04-28T11:07:15.026Z,21.56
2023-04-28T11:10:18.000Z,21.64
2023-04-28T11:13:28.165Z,22.86
2023-04-28T11:16:32.799Z,22.40
2023-04-28T11:19:43.519Z,21.50
2023-04-28T11:22:46.384Z,19.63
2023-04-28T11:25:56.809Z,19.14
2023-04-28T11:28:59.614Z,19.77
2023-04-28T11:32:09.487Z,19.29
2023-04-28T11:35:12.162Z,19.59
2023-04-28T11:38:14.660Z,19.07
2023-04-28T11:41:17.241Z,19.16
2023-04-28T11:44:27.555Z,19.30
2023-04-28T11:47:34.789Z,19.23
2023-04-28T11:50:38.616Z,19.50
2023-04-28T11:53:45.373Z,19.42
2023-04-28T11:56:47.987Z,20.44
2023-04-28T11:59:51.150Z,22.71
2023-04-28T12:02:54.100Z,22.23
2023-04-28T12:05:57.397Z,23.16
2023-04-28T12:09:04.425Z,25.29
2023-04-28T12:12:10.118Z,24.25
2023-04-28T12:15:12.977Z,21.70
2023-04-28T12:18:19.465Z,21.04
2023-04-28T12:21:22.061Z,20.68
2023-04-28T12:24:26.921Z,21.06
2023-04-28T12:27:29.532Z,20.75
2023-04-28T12:30:34.582Z,19.51
2023-04-28T12:33:39.621Z,19.04
2023-04-28T12:36:42.256Z,19.19
2023-04-28T12:39:45.216Z,19.04
2023-04-28T12:42:50.028Z,18.79
2023-04-28T12:45:56.783Z,18.50
2023-04-28T12:48:59.404Z,18.92
2023-04-28T12:52:02.006Z,20.01
2023-04-28T12:55:05.213Z,21.76
2023-04-28T12:58:07.704Z,21.39
2023-04-28T13:01:11.341Z,22.03
2023-04-28T13:04:14.158Z,20.71
2023-04-28T13:07:17.180Z,21.10
2023-04-28T13:10:21.448Z,20.60
2023-04-28T13:13:27.213Z,19.93
2023-04-28T13:16:30.459Z,19.18
2023-04-28T13:19:34.567Z,19.58
2023-04-28T13:22:37.199Z,19.63
2023-04-28T13:25:40.109Z,18.94
2023-04-28T13:28:43.016Z,18.35
2023-04-28T13:31:45.667Z,19.15
2023-04-28T13:34:48.523Z,19.38
2023-04-28T13:37:55.923Z,20.84
2023-04-28T13:40:58.340Z,25.44
2023-04-28T13:44:01.256Z,22.40
2023-04-28T13:47:04.238Z,20.83
2023-04-28T13:50:07.924Z,21.26
2023-04-28T13:53:11.083Z,21.93
2023-04-28T13:56:13.857Z,21.79
2023-04-28T13:59:16.269Z,20.58
2023-04-28T14:02:18.821Z,20.66
2023-04-28T14:05:22.344Z,21.36
2023-04-28T14:08:27.758Z,21.45
2023-04-28T14:11:30.877Z,22.11
2023-04-28T14:14:33.458Z,21.93
2023-04-28T14:17:36.726Z,21.69
2023-04-28T14:20:39.412Z,21.03
2023-04-28T14:23:41.893Z,19.66
2023-04-28T14:26:44.525Z,19.45
2023-04-28T14:29:50.129Z,19.06
2023-04-28T14:32:52.929Z,18.60
2023-04-28T14:35:55.688Z,18.48
2023-04-28T14:38:58.407Z,18.30
2023-04-28T14:42:00.918Z,18.23
2023-04-28T14:45:09.157Z,18.13
2023-04-28T14:48:11.822Z,18.13
2023-04-28T14:51:14.514Z,18.05
2023-04-28T14:54:17.276Z,18.04
2023-04-28T14:57:20.360Z,17.88
2023-04-28T15:00:22.848Z,18.21
2023-04-28T15:03:25.354Z,18.12
2023-04-28T15:06:28.227Z,18.27
2023-04-28T15:09:31.317Z,18.04
2023-04-28T15:12:34.502Z,17.79
2023-04-28T15:15:37.231Z,17.95
2023-04-28T15:18:39.702Z,18.18
2023-04-28T15:21:42.259Z,18.09
2023-04-28T15:24:44.853Z,17.88
2023-04-28T15:27:47.668Z,17.84
2023-04-28T15:30:50.220Z,17.71
2023-04-28T15:33:52.788Z,17.87
2023-04-28T15:36:55.600Z,17.70
2023-04-28T15:39:58.084Z,17.60
2023-04-28T15:43:00.572Z,17.61
2023-04-28T15:46:04.390Z,17.86
2023-04-28T15:49:07.237Z,17.79
2023-04-28T15:52:09.859Z,17.68
2023-04-28T15:55:14.217Z,17.78
2023-04-28T15:58:16.722Z,17.72
2023-04-28T16:01:19.332Z,17.51
2023-04-28T16:04:22.549Z,17.40
2023-04-28T16:07:25.303Z,17.24
2023-04-28T16:10:28.600Z,17.06
2023-04-28T16:13:36.982Z,17.02
2023-04-28T16:16:39.514Z,16.98
2023-04-28T16:19:42.965Z,16.91
2023-04-28T16:22:45.514Z,16.92
2023-04-28T16:25:50.690Z,16.76
2023-04-28T16:28:53.094Z,16.80
2023-04-28T16:31:56.515Z,16.69
2023-04-28T16:34:59.568Z,16.75
2023-04-28T16:38:02.104Z,16.66
2023-04-28T16:41:04.664Z,16.72
2023-04-28T16:44:08.202Z,16.73
2023-04-28T16:47:10.642Z,16.74
2023-04-28T16:50:16.537Z,16.62
2023-04-28T16:53:20.259Z,16.58
2023-04-28T16:56:22.791Z,16.39
2023-04-28T16:59:29.703Z,16.42
2023-04-28T17:02:32.601Z,16.45
2023-04-28T17:05:35.161Z,16.43
2023-04-28T17:08:39.198Z,16.36
2023-04-28T17:11:41.741Z,16.34
2023-04-28T17:14:45.019Z,16.22
2023-04-28T17:17:50.739Z,16.16
2023-04-28T17:20:53.271Z,16.23
2023-04-28T17:23:57.682Z,16.11
2023-04-28T17:27:00.178Z,16.11
2023-04-28T17:30:02.885Z,16.08
2023-04-28T17:33:06.825Z,16.05
2023-04-28T17:36:09.260Z,16.17
2023-04-28T17:39:14.246Z,16.07
2023-04-28T17:42:18.875Z,16.04
2023-04-28T17:45:21.320Z,15.92
2023-04-28T17:48:23.796Z,15.78
2023-04-28T17:51:27.825Z,15.89
2023-04-28T17:54:32.113Z,15.87
2023-04-28T17:57:34.849Z,15.86
2023-04-28T18:00:38.078Z,15.87
2023-04-28T18:03:41.340Z,15.77
2023-04-28T18:06:44.903Z,15.74
2023-04-28T18:09:47.807Z,15.71
2023-04-28T18:12:53.557Z,15.64
2023-04-28T18:15:56.656Z,15.68
2023-04-28T18:18:59.645Z,15.67
2023-04-28T18:22:02.569Z,15.62
2023-04-28T18:25:05.783Z,15.57
2023-04-28T18:28:10.330Z,15.50
2023-04-28T18:31:17.095Z,15.39
2023-04-28T18:34:19.932Z,15.37
2023-04-28T18:37:22.497Z,15.29
2023-04-28T18:40:25.316Z,15.21
2023-04-28T18:43:28.325Z,15.27
2023-04-28T18:46:31.100Z,15.26
2023-04-28T18:49:34.648Z,15.11
2023-04-28T18:52:37.819Z,15.14
2023-04-28T18:55:40.444Z,15.13
2023-04-28T18:58:43.101Z,15.13
2023-04-28T19:01:47.795Z,15.02
2023-04-28T19:04:51.453Z,14.90
2023-04-28T19:07:54.192Z,14.95
2023-04-28T19:11:00.023Z,14.93
2023-04-28T19:14:02.846Z,14.85
2023-04-28T19:17:05.721Z,14.90
2023-04-28T19:20:09.395Z,14.86
2023-04-28T19:23:12.377Z,14.73
2023-04-28T19:26:15.627Z,14.66
2023-04-28T19:29:19.058Z,14.55
2023-04-28T19:32:22.010Z,14.51
2023-04-28T19:35:25.016Z,14.42
2023-04-28T19:38:28.556Z,14.39
2023-04-28T19:41:31.401Z,14.19
2023-04-28T19:44:34.236Z,14.32
2023-04-28T19:47:37.846Z,14.12
2023-04-28T19:50:42.104Z,14.25
2023-04-28T19:53:47.149Z,14.24
2023-04-28T19:56:50.049Z,14.23
2023-04-28T19:59:52.993Z,14.25
2023-04-28T20:02:56.351Z,14.12
2023-04-28T20:05:59.177Z,14.12
2023-04-28T20:09:02.821Z,14.10
2023-04-28T20:12:08.678Z,14.05
2023-04-28T20:15:12.484Z,14.01
2023-04-28T20:18:15.008Z,13.91
2023-04-28T20:21:18.254Z,13.96
2023-04-28T20:24:21.006Z,13.98
2023-04-28T20:27:23.683Z,13.89
2023-04-28T20:30:26.808Z,13.81
2023-04-28T20:33:29.568Z,13.64
2023-04-28T20:36:33.722Z,13.79
2023-04-28T20:39:36.580Z,13.62
2023-04-28T20:42:40.672Z,13.80
2023-04-28T20:45:43.204Z,13.74
2023-04-28T20:48:45.837Z,13.61
2023-04-28T20:51:48.387Z,13.58
2023-04-28T20:54:52.161Z,13.68
2023-04-28T20:57:54.646Z,13.75
2023-04-28T21:00:57.521Z,13.65
2023-04-28T21:04:00.165Z,13.57
2023-04-28T21:07:02.982Z,13.52
2023-04-28T21:10:06.185Z,13.51
2023-04-28T21:13:09.669Z,13.65
2023-04-28T21:16:13.732Z,13.53
2023-04-28T21:19:17.105Z,13.43
2023-04-28T21:22:20.095Z,13.50
2023-04-28T21:25:22.736Z,13.42
2023-04-28T21:28:25.337Z,13.41
2023-04-28T21:31:27.897Z,13.24
2023-04-28T21:34:30.475Z,13.23
2023-04-28T21:37:33.056Z,13.13
2023-04-28T21:40:35.748Z,13.18
2023-04-28T21:43:39.342Z,13.13
2023-04-28T21:46:41.937Z,13.17
2023-04-28T21:49:44.736Z,13.06
2023-04-28T21:52:47.453Z,12.98
2023-04-28T21:55:50.158Z,13.02
2023-04-28T21:58:52.736Z,13.01
2023-04-28T22:01:57.179Z,13.02
2023-04-28T22:05:00.168Z,12.76
2023-04-28T22:08:04.179Z,12.71
2023-04-28T22:11:06.914Z,12.69
2023-04-28T22:14:12.038Z,12.72
2023-04-28T22:17:18.039Z,12.66
2023-04-28T22:20:20.638Z,12.66
2023-04-28T22:23:23.234Z,12.68
2023-04-28T22:26:25.876Z,12.50
2023-04-28T22:29:28.628Z,12.59
2023-04-28T22:32:31.850Z,12.45
2023-04-28T22:35:34.436Z,12.43
2023-04-28T22:38:37.804Z,12.53
2023-04-28T22:41:40.271Z,12.42
2023-04-28T22:44:42.894Z,12.43
2023-04-28T22:47:46.108Z,12.44
2023-04-28T22:50:49.485Z,12.43
2023-04-28T22:53:54.240Z,12.58
2023-04-28T22:56:56.934Z,12.64
2023-04-28T22:59:59.630Z,12.47
2023-04-28T23:03:02.414Z,12.54
2023-04-28T23:06:05.149Z,12.48
2023-04-28T23:09:07.894Z,12.39
2023-04-28T23:12:10.931Z,12.21
2023-04-28T23:15:13.508Z,12.26
2023-04-28T23:18:16.132Z,12.21
2023-04-28T23:21:18.955Z,12.04
2023-04-28T23:24:21.467Z,12.18
2023-04-28T23:27:23.977Z,12.09
2023-04-28T23:30:26.883Z,12.02
2023-04-28T23:33:29.843Z,11.90
2023-04-28T23:36:32.443Z,12.03
2023-04-28T23:39:35.065Z,11.85
2023-04-28T23:42:37.832Z,11.84
2023-04-28T23:45:40.811Z,11.78
2023-04-28T23:48:43.958Z,11.66
2023-04-28T23:51:46.527Z,11.70
2023-04-28T23:54:49.635Z,11.66
2023-04-28T23:57:52.102Z,11.57
